sensor_id;sensor_type;location;lat;lon;timestamp;P1;durP1;ratioP1;P2;durP2;ratioP2
64188;SDS011;50493;50.970;10.082;2023-07-20T00:01:22;2.03;;;1.55;;
64188;SDS011;50493;50.970;10.082;2023-07-20T00:03:47;2.58;;;1.70;;
64188;SDS011;50493;50.970;10.082;2023-07-20T00:06:21;3.13;;;1.98;;
64188;SDS011;50493;50.970;10.082;2023-07-20T00:08:46;2.58;;;1.55;;
64188;SDS011;50493;50.970;10.082;2023-07-20T00:11:11;2.60;;;1.73;;
64188;SDS011;50493;50.970;10.082;2023-07-20T00:13:38;3.35;;;1.77;;
64188;SDS011;50493;50.970;10.082;2023-07-20T00:16:04;3.20;;;2.00;;
64188;SDS011;50493;50.970;10.082;2023-07-20T00:18:29;2.83;;;1.60;;
64188;SDS011;50493;50.970;10.082;2023-07-20T00:20:55;2.70;;;1.80;;
64188;SDS011;50493;50.970;10.082;2023-07-20T00:23:21;3.03;;;1.95;;
64188;SDS011;50493;50.970;10.082;2023-07-20T00:25:47;4.32;;;1.80;;
64188;SDS011;50493;50.970;10.082;2023-07-20T00:28:13;2.60;;;1.70;;
64188;SDS011;50493;50.970;10.082;2023-07-20T00:30:38;2.88;;;1.88;;
64188;SDS011;50493;50.970;10.082;2023-07-20T00:33:03;2.63;;;1.70;;
64188;SDS011;50493;50.970;10.082;2023-07-20T00:35:29;3.72;;;1.65;;
64188;SDS011;50493;50.970;10.082;2023-07-20T00:37:54;4.70;;;2.00;;
64188;SDS011;50493;50.970;10.082;2023-07-20T00:40:21;2.75;;;1.67;;
64188;SDS011;50493;50.970;10.082;2023-07-20T00:42:46;2.67;;;1.60;;
64188;SDS011;50493;50.970;10.082;2023-07-20T00:45:11;2.67;;;1.63;;
64188;SDS011;50493;50.970;10.082;2023-07-20T00:47:37;2.17;;;1.73;;
64188;SDS011;50493;50.970;10.082;2023-07-20T00:50:02;3.13;;;1.90;;
64188;SDS011;50493;50.970;10.082;2023-07-20T00:52:30;2.90;;;1.70;;
64188;SDS011;50493;50.970;10.082;2023-07-20T00:54:55;2.28;;;1.55;;
64188;SDS011;50493;50.970;10.082;2023-07-20T00:57:22;2.28;;;1.60;;
64188;SDS011;50493;50.970;10.082;2023-07-20T00:59:50;2.50;;;1.70;;
64188;SDS011;50493;50.970;10.082;2023-07-20T01:02:16;2.78;;;1.90;;
64188;SDS011;50493;50.970;10.082;2023-07-20T01:04:41;2.78;;;1.67;;
64188;SDS011;50493;50.970;10.082;2023-07-20T01:07:09;2.63;;;1.67;;
64188;SDS011;50493;50.970;10.082;2023-07-20T01:09:39;2.65;;;1.70;;
64188;SDS011;50493;50.970;10.082;2023-07-20T01:12:10;3.15;;;1.70;;
64188;SDS011;50493;50.970;10.082;2023-07-20T01:14:43;2.53;;;1.88;;
64188;SDS011;50493;50.970;10.082;2023-07-20T01:17:09;2.53;;;1.90;;
64188;SDS011;50493;50.970;10.082;2023-07-20T01:19:35;2.63;;;1.67;;
64188;SDS011;50493;50.970;10.082;2023-07-20T01:22:01;2.92;;;1.63;;
64188;SDS011;50493;50.970;10.082;2023-07-20T01:24:52;2.83;;;1.77;;
64188;SDS011;50493;50.970;10.082;2023-07-20T01:27:36;2.92;;;1.77;;
64188;SDS011;50493;50.970;10.082;2023-07-20T01:30:25;3.22;;;1.70;;
64188;SDS011;50493;50.970;10.082;2023-07-20T01:35:36;4.18;;;1.58;;
64188;SDS011;50493;50.970;10.082;2023-07-20T01:38:05;3.00;;;1.88;;
64188;SDS011;50493;50.970;10.082;2023-07-20T01:40:32;2.90;;;1.88;;
64188;SDS011;50493;50.970;10.082;2023-07-20T01:42:58;3.05;;;1.60;;
64188;SDS011;50493;50.970;10.082;2023-07-20T01:45:23;2.42;;;1.60;;
64188;SDS011;50493;50.970;10.082;2023-07-20T01:47:48;2.78;;;1.70;;
64188;SDS011;50493;50.970;10.082;2023-07-20T01:50:15;3.03;;;1.70;;
64188;SDS011;50493;50.970;10.082;2023-07-20T01:52:41;3.22;;;1.70;;
64188;SDS011;50493;50.970;10.082;2023-07-20T01:55:06;3.33;;;1.77;;
64188;SDS011;50493;50.970;10.082;2023-07-20T01:57:32;2.72;;;1.80;;
64188;SDS011;50493;50.970;10.082;2023-07-20T01:59:58;3.45;;;1.95;;
64188;SDS011;50493;50.970;10.082;2023-07-20T02:02:25;2.60;;;1.80;;
64188;SDS011;50493;50.970;10.082;2023-07-20T02:04:52;2.25;;;1.60;;
64188;SDS011;50493;50.970;10.082;2023-07-20T02:07:19;2.28;;;1.77;;
64188;SDS011;50493;50.970;10.082;2023-07-20T02:09:44;3.15;;;1.90;;
64188;SDS011;50493;50.970;10.082;2023-07-20T02:12:10;3.28;;;1.60;;
64188;SDS011;50493;50.970;10.082;2023-07-20T02:14:35;3.45;;;2.10;;
64188;SDS011;50493;50.970;10.082;2023-07-20T02:17:01;2.58;;;1.80;;
64188;SDS011;50493;50.970;10.082;2023-07-20T02:19:26;3.33;;;1.70;;
64188;SDS011;50493;50.970;10.082;2023-07-20T02:21:52;2.88;;;1.80;;
64188;SDS011;50493;50.970;10.082;2023-07-20T02:24:19;3.50;;;1.88;;
64188;SDS011;50493;50.970;10.082;2023-07-20T02:26:44;3.33;;;1.70;;
64188;SDS011;50493;50.970;10.082;2023-07-20T02:29:10;2.20;;;1.48;;
64188;SDS011;50493;50.970;10.082;2023-07-20T02:31:36;2.50;;;1.80;;
64188;SDS011;50493;50.970;10.082;2023-07-20T02:34:02;3.00;;;1.75;;
64188;SDS011;50493;50.970;10.082;2023-07-20T02:36:28;2.70;;;1.90;;
64188;SDS011;50493;50.970;10.082;2023-07-20T02:38:53;2.10;;;1.73;;
64188;SDS011;50493;50.970;10.082;2023-07-20T02:41:20;2.83;;;1.70;;
64188;SDS011;50493;50.970;10.082;2023-07-20T02:43:46;2.90;;;1.98;;
64188;SDS011;50493;50.970;10.082;2023-07-20T02:46:11;2.42;;;1.60;;
64188;SDS011;50493;50.970;10.082;2023-07-20T02:48:37;3.13;;;1.60;;
64188;SDS011;50493;50.970;10.082;2023-07-20T02:51:02;2.20;;;1.67;;
64188;SDS011;50493;50.970;10.082;2023-07-20T02:53:27;5.35;;;1.77;;
64188;SDS011;50493;50.970;10.082;2023-07-20T02:55:53;3.00;;;1.88;;
64188;SDS011;50493;50.970;10.082;2023-07-20T02:58:20;2.22;;;1.73;;
64188;SDS011;50493;50.970;10.082;2023-07-20T03:00:45;2.75;;;1.70;;
64188;SDS011;50493;50.970;10.082;2023-07-20T03:03:10;3.85;;;2.15;;
64188;SDS011;50493;50.970;10.082;2023-07-20T03:05:36;2.33;;;1.65;;
64188;SDS011;50493;50.970;10.082;2023-07-20T03:08:04;3.15;;;1.70;;
64188;SDS011;50493;50.970;10.082;2023-07-20T03:10:31;2.42;;;1.73;;
64188;SDS011;50493;50.970;10.082;2023-07-20T03:12:56;3.03;;;1.85;;
64188;SDS011;50493;50.970;10.082;2023-07-20T03:15:23;3.47;;;1.70;;
64188;SDS011;50493;50.970;10.082;2023-07-20T03:17:48;2.45;;;1.60;;
64188;SDS011;50493;50.970;10.082;2023-07-20T03:20:14;2.15;;;1.60;;
64188;SDS011;50493;50.970;10.082;2023-07-20T03:22:39;2.60;;;1.67;;
64188;SDS011;50493;50.970;10.082;2023-07-20T03:25:05;2.40;;;1.65;;
64188;SDS011;50493;50.970;10.082;2023-07-20T03:27:31;2.67;;;1.88;;
64188;SDS011;50493;50.970;10.082;2023-07-20T03:29:56;2.50;;;1.90;;
64188;SDS011;50493;50.970;10.082;2023-07-20T03:32:23;2.35;;;1.83;;
64188;SDS011;50493;50.970;10.082;2023-07-20T03:34:48;2.50;;;1.70;;
64188;SDS011;50493;50.970;10.082;2023-07-20T03:37:14;2.92;;;1.77;;
64188;SDS011;50493;50.970;10.082;2023-07-20T03:39:39;2.28;;;1.67;;
64188;SDS011;50493;50.970;10.082;2023-07-20T03:42:05;2.35;;;1.63;;
64188;SDS011;50493;50.970;10.082;2023-07-20T03:44:31;2.28;;;1.63;;
64188;SDS011;50493;50.970;10.082;2023-07-20T03:46:56;2.70;;;1.80;;
64188;SDS011;50493;50.970;10.082;2023-07-20T03:49:23;2.67;;;1.70;;
64188;SDS011;50493;50.970;10.082;2023-07-20T03:51:49;3.53;;;1.80;;
64188;SDS011;50493;50.970;10.082;2023-07-20T03:54:14;2.38;;;1.70;;
64188;SDS011;50493;50.970;10.082;2023-07-20T03:56:39;2.70;;;2.00;;
64188;SDS011;50493;50.970;10.082;2023-07-20T03:59:05;2.35;;;1.75;;
64188;SDS011;50493;50.970;10.082;2023-07-20T04:01:30;3.25;;;1.90;;
64188;SDS011;50493;50.970;10.082;2023-07-20T04:04:01;2.95;;;1.80;;
64188;SDS011;50493;50.970;10.082;2023-07-20T04:06:28;2.83;;;1.85;;
64188;SDS011;50493;50.970;10.082;2023-07-20T04:08:54;2.22;;;1.70;;
64188;SDS011;50493;50.970;10.082;2023-07-20T04:11:19;2.53;;;1.60;;
64188;SDS011;50493;50.970;10.082;2023-07-20T04:13:44;2.53;;;1.80;;
64188;SDS011;50493;50.970;10.082;2023-07-20T04:16:10;3.55;;;1.75;;
64188;SDS011;50493;50.970;10.082;2023-07-20T04:18:35;2.40;;;1.70;;
64188;SDS011;50493;50.970;10.082;2023-07-20T04:21:00;2.35;;;1.75;;
64188;SDS011;50493;50.970;10.082;2023-07-20T04:23:27;2.30;;;1.73;;
64188;SDS011;50493;50.970;10.082;2023-07-20T04:25:52;3.45;;;1.70;;
64188;SDS011;50493;50.970;10.082;2023-07-20T04:28:18;2.20;;;1.63;;
64188;SDS011;50493;50.970;10.082;2023-07-20T04:30:43;3.17;;;2.08;;
64188;SDS011;50493;50.970;10.082;2023-07-20T04:33:09;2.47;;;1.77;;
64188;SDS011;50493;50.970;10.082;2023-07-20T04:35:50;2.35;;;1.60;;
64188;SDS011;50493;50.970;10.082;2023-07-20T04:38:16;2.63;;;1.75;;
64188;SDS011;50493;50.970;10.082;2023-07-20T04:40:44;3.53;;;1.80;;
64188;SDS011;50493;50.970;10.082;2023-07-20T04:43:10;2.10;;;1.80;;
64188;SDS011;50493;50.970;10.082;2023-07-20T04:45:35;2.45;;;1.65;;
64188;SDS011;50493;50.970;10.082;2023-07-20T04:48:00;3.40;;;1.70;;
64188;SDS011;50493;50.970;10.082;2023-07-20T04:50:26;2.58;;;1.85;;
64188;SDS011;50493;50.970;10.082;2023-07-20T04:52:51;3.08;;;1.80;;
64188;SDS011;50493;50.970;10.082;2023-07-20T04:55:18;2.67;;;1.80;;
64188;SDS011;50493;50.970;10.082;2023-07-20T04:57:45;3.45;;;2.53;;
64188;SDS011;50493;50.970;10.082;2023-07-20T05:00:10;2.45;;;1.75;;
64188;SDS011;50493;50.970;10.082;2023-07-20T05:02:38;2.72;;;2.03;;
64188;SDS011;50493;50.970;10.082;2023-07-20T05:05:03;2.08;;;1.70;;
64188;SDS011;50493;50.970;10.082;2023-07-20T05:07:30;4.07;;;1.80;;
64188;SDS011;50493;50.970;10.082;2023-07-20T05:09:56;3.10;;;1.98;;
64188;SDS011;50493;50.970;10.082;2023-07-20T05:12:21;3.13;;;1.85;;
64188;SDS011;50493;50.970;10.082;2023-07-20T05:14:48;6.10;;;3.85;;
64188;SDS011;50493;50.970;10.082;2023-07-20T05:17:13;8.13;;;3.28;;
64188;SDS011;50493;50.970;10.082;2023-07-20T05:19:39;5.18;;;3.33;;
64188;SDS011;50493;50.970;10.082;2023-07-20T05:22:04;5.75;;;2.80;;
64188;SDS011;50493;50.970;10.082;2023-07-20T05:24:30;4.57;;;3.00;;
64188;SDS011;50493;50.970;10.082;2023-07-20T05:26:56;4.85;;;3.03;;
64188;SDS011;50493;50.970;10.082;2023-07-20T05:29:21;4.82;;;2.72;;
64188;SDS011;50493;50.970;10.082;2023-07-20T05:31:48;4.53;;;2.95;;
64188;SDS011;50493;50.970;10.082;2023-07-20T05:34:13;5.85;;;2.72;;
64188;SDS011;50493;50.970;10.082;2023-07-20T05:36:39;5.05;;;2.92;;
64188;SDS011;50493;50.970;10.082;2023-07-20T05:39:04;4.70;;;2.45;;
64188;SDS011;50493;50.970;10.082;2023-07-20T05:41:30;4.95;;;3.10;;
64188;SDS011;50493;50.970;10.082;2023-07-20T05:43:55;4.68;;;2.97;;
64188;SDS011;50493;50.970;10.082;2023-07-20T05:46:21;4.75;;;3.03;;
64188;SDS011;50493;50.970;10.082;2023-07-20T05:48:48;4.35;;;2.83;;
64188;SDS011;50493;50.970;10.082;2023-07-20T05:51:14;8.43;;;4.18;;
64188;SDS011;50493;50.970;10.082;2023-07-20T05:53:39;5.72;;;4.30;;
64188;SDS011;50493;50.970;10.082;2023-07-20T05:56:05;8.43;;;4.40;;
64188;SDS011;50493;50.970;10.082;2023-07-20T05:58:30;8.30;;;4.72;;
64188;SDS011;50493;50.970;10.082;2023-07-20T06:00:56;5.88;;;4.03;;
64188;SDS011;50493;50.970;10.082;2023-07-20T06:03:21;6.38;;;4.80;;
64188;SDS011;50493;50.970;10.082;2023-07-20T06:05:48;4.40;;;2.78;;
64188;SDS011;50493;50.970;10.082;2023-07-20T06:08:14;4.28;;;3.20;;
64188;SDS011;50493;50.970;10.082;2023-07-20T06:10:39;5.43;;;2.63;;
64188;SDS011;50493;50.970;10.082;2023-07-20T06:13:05;7.45;;;3.30;;
64188;SDS011;50493;50.970;10.082;2023-07-20T06:15:31;3.58;;;2.40;;
64188;SDS011;50493;50.970;10.082;2023-07-20T06:17:59;9.57;;;5.30;;
64188;SDS011;50493;50.970;10.082;2023-07-20T06:20:26;3.70;;;2.60;;
64188;SDS011;50493;50.970;10.082;2023-07-20T06:22:52;10.18;;;4.90;;
64188;SDS011;50493;50.970;10.082;2023-07-20T06:25:18;9.15;;;6.00;;
64188;SDS011;50493;50.970;10.082;2023-07-20T06:27:43;8.10;;;3.70;;
64188;SDS011;50493;50.970;10.082;2023-07-20T06:30:10;5.97;;;3.08;;
64188;SDS011;50493;50.970;10.082;2023-07-20T06:32:35;4.10;;;2.65;;
64188;SDS011;50493;50.970;10.082;2023-07-20T06:35:01;7.40;;;4.72;;
64188;SDS011;50493;50.970;10.082;2023-07-20T06:37:26;4.72;;;2.80;;
64188;SDS011;50493;50.970;10.082;2023-07-20T06:39:53;4.25;;;2.40;;
64188;SDS011;50493;50.970;10.082;2023-07-20T06:42:18;5.88;;;3.40;;
64188;SDS011;50493;50.970;10.082;2023-07-20T06:44:44;4.68;;;2.90;;
64188;SDS011;50493;50.970;10.082;2023-07-20T06:47:10;6.10;;;4.03;;
64188;SDS011;50493;50.970;10.082;2023-07-20T06:49:35;6.45;;;4.05;;
64188;SDS011;50493;50.970;10.082;2023-07-20T06:52:01;5.72;;;4.43;;
64188;SDS011;50493;50.970;10.082;2023-07-20T06:54:27;4.95;;;3.35;;
64188;SDS011;50493;50.970;10.082;2023-07-20T06:56:54;3.92;;;2.80;;
64188;SDS011;50493;50.970;10.082;2023-07-20T06:59:19;5.30;;;3.85;;
64188;SDS011;50493;50.970;10.082;2023-07-20T07:01:46;3.88;;;2.80;;
64188;SDS011;50493;50.970;10.082;2023-07-20T07:04:11;6.47;;;3.80;;
64188;SDS011;50493;50.970;10.082;2023-07-20T07:06:37;5.03;;;2.80;;
64188;SDS011;50493;50.970;10.082;2023-07-20T07:09:02;5.93;;;2.90;;
64188;SDS011;50493;50.970;10.082;2023-07-20T07:11:28;4.97;;;2.92;;
64188;SDS011;50493;50.970;10.082;2023-07-20T07:13:55;4.10;;;3.00;;
64188;SDS011;50493;50.970;10.082;2023-07-20T07:16:20;4.55;;;3.40;;
64188;SDS011;50493;50.970;10.082;2023-07-20T07:18:46;3.92;;;2.63;;
64188;SDS011;50493;50.970;10.082;2023-07-20T07:21:11;7.40;;;3.60;;
64188;SDS011;50493;50.970;10.082;2023-07-20T07:23:37;3.95;;;2.70;;
64188;SDS011;50493;50.970;10.082;2023-07-20T07:26:03;5.35;;;2.88;;
64188;SDS011;50493;50.970;10.082;2023-07-20T07:28:29;6.18;;;3.10;;
64188;SDS011;50493;50.970;10.082;2023-07-20T07:30:55;3.75;;;2.72;;
64188;SDS011;50493;50.970;10.082;2023-07-20T07:33:22;5.03;;;3.10;;
64188;SDS011;50493;50.970;10.082;2023-07-20T07:35:47;5.00;;;3.33;;
64188;SDS011;50493;50.970;10.082;2023-07-20T07:38:12;3.10;;;2.42;;
64188;SDS011;50493;50.970;10.082;2023-07-20T07:40:38;3.58;;;2.60;;
64188;SDS011;50493;50.970;10.082;2023-07-20T07:43:03;4.57;;;2.85;;
64188;SDS011;50493;50.970;10.082;2023-07-20T07:45:29;3.85;;;2.75;;
64188;SDS011;50493;50.970;10.082;2023-07-20T07:47:55;4.30;;;2.88;;
64188;SDS011;50493;50.970;10.082;2023-07-20T07:50:21;3.50;;;2.70;;
64188;SDS011;50493;50.970;10.082;2023-07-20T07:52:47;6.95;;;2.50;;
64188;SDS011;50493;50.970;10.082;2023-07-20T07:55:12;4.15;;;2.65;;
64188;SDS011;50493;50.970;10.082;2023-07-20T07:57:37;4.07;;;2.63;;
64188;SDS011;50493;50.970;10.082;2023-07-20T08:00:03;5.20;;;3.33;;
64188;SDS011;50493;50.970;10.082;2023-07-20T08:02:31;4.43;;;3.22;;
64188;SDS011;50493;50.970;10.082;2023-07-20T08:04:58;5.00;;;3.35;;
64188;SDS011;50493;50.970;10.082;2023-07-20T08:07:23;5.50;;;3.13;;
64188;SDS011;50493;50.970;10.082;2023-07-20T08:09:48;3.88;;;2.72;;
64188;SDS011;50493;50.970;10.082;2023-07-20T08:12:14;5.63;;;2.90;;
64188;SDS011;50493;50.970;10.082;2023-07-20T08:14:42;4.00;;;2.58;;
64188;SDS011;50493;50.970;10.082;2023-07-20T08:17:08;6.10;;;3.75;;
64188;SDS011;50493;50.970;10.082;2023-07-20T08:19:33;4.88;;;3.17;;
64188;SDS011;50493;50.970;10.082;2023-07-20T08:22:04;6.63;;;3.67;;
64188;SDS011;50493;50.970;10.082;2023-07-20T08:24:29;4.00;;;2.95;;
64188;SDS011;50493;50.970;10.082;2023-07-20T08:26:55;4.65;;;3.10;;
64188;SDS011;50493;50.970;10.082;2023-07-20T08:29:20;4.90;;;3.25;;
64188;SDS011;50493;50.970;10.082;2023-07-20T08:31:46;4.32;;;3.08;;
64188;SDS011;50493;50.970;10.082;2023-07-20T08:34:11;4.88;;;3.08;;
64188;SDS011;50493;50.970;10.082;2023-07-20T08:36:37;6.63;;;3.20;;
64188;SDS011;50493;50.970;10.082;2023-07-20T08:39:03;4.53;;;3.20;;
64188;SDS011;50493;50.970;10.082;2023-07-20T08:41:29;7.35;;;3.20;;
64188;SDS011;50493;50.970;10.082;2023-07-20T08:43:54;5.40;;;3.10;;
64188;SDS011;50493;50.970;10.082;2023-07-20T08:46:20;5.57;;;3.10;;
64188;SDS011;50493;50.970;10.082;2023-07-20T08:48:47;5.45;;;3.30;;
64188;SDS011;50493;50.970;10.082;2023-07-20T08:51:13;6.18;;;3.13;;
64188;SDS011;50493;50.970;10.082;2023-07-20T08:53:40;4.95;;;3.20;;
64188;SDS011;50493;50.970;10.082;2023-07-20T08:56:07;3.92;;;3.10;;
64188;SDS011;50493;50.970;10.082;2023-07-20T08:58:36;4.80;;;3.00;;
64188;SDS011;50493;50.970;10.082;2023-07-20T09:01:04;4.70;;;3.38;;
64188;SDS011;50493;50.970;10.082;2023-07-20T09:03:30;5.13;;;3.10;;
64188;SDS011;50493;50.970;10.082;2023-07-20T09:05:55;4.10;;;3.08;;
64188;SDS011;50493;50.970;10.082;2023-07-20T09:08:20;4.53;;;3.40;;
64188;SDS011;50493;50.970;10.082;2023-07-20T09:10:46;4.95;;;3.33;;
64188;SDS011;50493;50.970;10.082;2023-07-20T09:13:15;4.78;;;3.20;;
64188;SDS011;50493;50.970;10.082;2023-07-20T09:15:45;4.10;;;3.10;;
64188;SDS011;50493;50.970;10.082;2023-07-20T09:18:11;4.85;;;3.35;;
64188;SDS011;50493;50.970;10.082;2023-07-20T09:20:36;4.75;;;3.15;;
64188;SDS011;50493;50.970;10.082;2023-07-20T09:23:04;6.00;;;3.00;;
64188;SDS011;50493;50.970;10.082;2023-07-20T09:25:31;5.22;;;3.38;;
64188;SDS011;50493;50.970;10.082;2023-07-20T09:27:56;4.47;;;3.10;;
64188;SDS011;50493;50.970;10.082;2023-07-20T09:30:25;4.25;;;3.28;;
64188;SDS011;50493;50.970;10.082;2023-07-20T09:32:51;4.18;;;3.17;;
64188;SDS011;50493;50.970;10.082;2023-07-20T09:35:17;4.50;;;3.15;;
64188;SDS011;50493;50.970;10.082;2023-07-20T09:37:46;3.60;;;2.90;;
64188;SDS011;50493;50.970;10.082;2023-07-20T09:40:14;5.22;;;3.50;;
64188;SDS011;50493;50.970;10.082;2023-07-20T09:42:41;4.50;;;3.13;;
64188;SDS011;50493;50.970;10.082;2023-07-20T09:45:08;5.40;;;3.22;;
64188;SDS011;50493;50.970;10.082;2023-07-20T09:47:37;5.70;;;3.28;;
64188;SDS011;50493;50.970;10.082;2023-07-20T09:50:03;5.05;;;3.20;;
64188;SDS011;50493;50.970;10.082;2023-07-20T09:52:30;5.32;;;3.20;;
64188;SDS011;50493;50.970;10.082;2023-07-20T09:54:56;6.93;;;3.30;;
64188;SDS011;50493;50.970;10.082;2023-07-20T09:57:22;4.55;;;2.80;;
64188;SDS011;50493;50.970;10.082;2023-07-20T09:59:48;5.28;;;3.08;;
64188;SDS011;50493;50.970;10.082;2023-07-20T10:02:16;4.55;;;2.80;;
64188;SDS011;50493;50.970;10.082;2023-07-20T10:04:47;3.85;;;2.65;;
64188;SDS011;50493;50.970;10.082;2023-07-20T10:07:17;5.25;;;2.80;;
64188;SDS011;50493;50.970;10.082;2023-07-20T10:09:46;4.93;;;2.67;;
64188;SDS011;50493;50.970;10.082;2023-07-20T10:12:13;3.53;;;2.70;;
64188;SDS011;50493;50.970;10.082;2023-07-20T10:14:41;3.95;;;2.53;;
64188;SDS011;50493;50.970;10.082;2023-07-20T10:17:14;4.05;;;2.70;;
64188;SDS011;50493;50.970;10.082;2023-07-20T10:19:42;4.75;;;2.58;;
64188;SDS011;50493;50.970;10.082;2023-07-20T10:22:12;3.80;;;2.58;;
64188;SDS011;50493;50.970;10.082;2023-07-20T10:24:39;3.03;;;2.20;;
64188;SDS011;50493;50.970;10.082;2023-07-20T10:27:06;2.92;;;2.22;;
64188;SDS011;50493;50.970;10.082;2023-07-20T10:29:32;3.50;;;2.40;;
64188;SDS011;50493;50.970;10.082;2023-07-20T10:31:58;3.50;;;2.25;;
64188;SDS011;50493;50.970;10.082;2023-07-20T10:34:24;2.88;;;2.35;;
64188;SDS011;50493;50.970;10.082;2023-07-20T10:36:50;5.13;;;2.60;;
64188;SDS011;50493;50.970;10.082;2023-07-20T10:39:24;3.65;;;2.20;;
64188;SDS011;50493;50.970;10.082;2023-07-20T10:41:59;3.33;;;2.00;;
64188;SDS011;50493;50.970;10.082;2023-07-20T10:44:26;3.40;;;2.20;;
64188;SDS011;50493;50.970;10.082;2023-07-20T10:46:51;3.53;;;2.30;;
64188;SDS011;50493;50.970;10.082;2023-07-20T10:49:24;3.63;;;2.28;;
64188;SDS011;50493;50.970;10.082;2023-07-20T10:51:56;2.75;;;2.20;;
64188;SDS011;50493;50.970;10.082;2023-07-20T10:54:36;3.53;;;2.40;;
64188;SDS011;50493;50.970;10.082;2023-07-20T10:57:21;2.58;;;2.05;;
64188;SDS011;50493;50.970;10.082;2023-07-20T10:59:48;3.78;;;2.25;;
64188;SDS011;50493;50.970;10.082;2023-07-20T11:02:17;2.92;;;1.80;;
64188;SDS011;50493;50.970;10.082;2023-07-20T11:04:44;2.53;;;2.08;;
64188;SDS011;50493;50.970;10.082;2023-07-20T11:07:11;3.03;;;2.08;;
64188;SDS011;50493;50.970;10.082;2023-07-20T11:09:42;3.78;;;2.30;;
64188;SDS011;50493;50.970;10.082;2023-07-20T11:12:09;3.30;;;2.10;;
64188;SDS011;50493;50.970;10.082;2023-07-20T11:14:35;3.78;;;2.28;;
64188;SDS011;50493;50.970;10.082;2023-07-20T11:17:10;2.97;;;2.20;;
64188;SDS011;50493;50.970;10.082;2023-07-20T11:19:37;3.20;;;2.40;;
64188;SDS011;50493;50.970;10.082;2023-07-20T11:22:04;2.80;;;1.92;;
64188;SDS011;50493;50.970;10.082;2023-07-20T11:24:32;3.38;;;2.28;;
64188;SDS011;50493;50.970;10.082;2023-07-20T11:27:00;3.22;;;2.20;;
64188;SDS011;50493;50.970;10.082;2023-07-20T11:29:28;3.08;;;2.10;;
64188;SDS011;50493;50.970;10.082;2023-07-20T11:31:53;2.97;;;2.17;;
64188;SDS011;50493;50.970;10.082;2023-07-20T11:34:19;2.67;;;2.03;;
64188;SDS011;50493;50.970;10.082;2023-07-20T11:36:47;2.63;;;2.00;;
64188;SDS011;50493;50.970;10.082;2023-07-20T11:39:14;3.10;;;2.10;;
64188;SDS011;50493;50.970;10.082;2023-07-20T11:41:43;2.90;;;2.00;;
64188;SDS011;50493;50.970;10.082;2023-07-20T11:44:12;4.03;;;2.17;;
64188;SDS011;50493;50.970;10.082;2023-07-20T11:46:38;2.90;;;2.20;;
64188;SDS011;50493;50.970;10.082;2023-07-20T11:49:04;3.50;;;2.33;;
64188;SDS011;50493;50.970;10.082;2023-07-20T11:51:29;2.72;;;1.90;;
64188;SDS011;50493;50.970;10.082;2023-07-20T11:53:56;2.92;;;2.00;;
64188;SDS011;50493;50.970;10.082;2023-07-20T11:56:22;2.42;;;1.90;;
64188;SDS011;50493;50.970;10.082;2023-07-20T11:58:48;2.83;;;2.05;;
64188;SDS011;50493;50.970;10.082;2023-07-20T12:01:15;2.40;;;1.80;;
64188;SDS011;50493;50.970;10.082;2023-07-20T12:03:42;2.67;;;2.13;;
64188;SDS011;50493;50.970;10.082;2023-07-20T12:06:08;3.28;;;2.25;;
64188;SDS011;50493;50.970;10.082;2023-07-20T12:08:37;4.47;;;2.22;;
64188;SDS011;50493;50.970;10.082;2023-07-20T12:11:03;3.40;;;2.30;;
64188;SDS011;50493;50.970;10.082;2023-07-20T12:13:36;3.28;;;2.25;;
64188;SDS011;50493;50.970;10.082;2023-07-20T12:16:06;2.28;;;1.90;;
64188;SDS011;50493;50.970;10.082;2023-07-20T12:18:35;2.17;;;1.92;;
64188;SDS011;50493;50.970;10.082;2023-07-20T12:21:01;3.75;;;2.03;;
64188;SDS011;50493;50.970;10.082;2023-07-20T12:23:34;3.78;;;2.13;;
64188;SDS011;50493;50.970;10.082;2023-07-20T12:26:00;2.75;;;2.10;;
64188;SDS011;50493;50.970;10.082;2023-07-20T12:28:26;2.53;;;1.88;;
64188;SDS011;50493;50.970;10.082;2023-07-20T12:30:51;2.70;;;2.28;;
64188;SDS011;50493;50.970;10.082;2023-07-20T12:33:21;2.83;;;2.20;;
64188;SDS011;50493;50.970;10.082;2023-07-20T12:35:49;3.53;;;2.28;;
64188;SDS011;50493;50.970;10.082;2023-07-20T12:38:14;2.85;;;2.13;;
64188;SDS011;50493;50.970;10.082;2023-07-20T12:40:40;2.80;;;2.10;;
64188;SDS011;50493;50.970;10.082;2023-07-20T12:43:06;2.70;;;2.00;;
64188;SDS011;50493;50.970;10.082;2023-07-20T12:45:32;2.35;;;2.00;;
64188;SDS011;50493;50.970;10.082;2023-07-20T12:47:58;3.00;;;2.22;;
64188;SDS011;50493;50.970;10.082;2023-07-20T12:50:23;2.70;;;2.05;;
64188;SDS011;50493;50.970;10.082;2023-07-20T12:52:50;3.58;;;2.10;;
64188;SDS011;50493;50.970;10.082;2023-07-20T12:55:15;3.80;;;2.00;;
64188;SDS011;50493;50.970;10.082;2023-07-20T12:57:41;2.33;;;1.80;;
64188;SDS011;50493;50.970;10.082;2023-07-20T13:00:09;2.58;;;1.83;;
64188;SDS011;50493;50.970;10.082;2023-07-20T13:02:35;2.63;;;2.03;;
64188;SDS011;50493;50.970;10.082;2023-07-20T13:05:01;2.97;;;2.08;;
64188;SDS011;50493;50.970;10.082;2023-07-20T13:07:30;2.42;;;1.80;;
64188;SDS011;50493;50.970;10.082;2023-07-20T13:09:58;3.17;;;1.90;;
64188;SDS011;50493;50.970;10.082;2023-07-20T13:12:25;2.50;;;1.90;;
64188;SDS011;50493;50.970;10.082;2023-07-20T13:14:50;2.42;;;1.95;;
64188;SDS011;50493;50.970;10.082;2023-07-20T13:17:16;3.33;;;2.10;;
64188;SDS011;50493;50.970;10.082;2023-07-20T13:19:41;2.50;;;2.00;;
64188;SDS011;50493;50.970;10.082;2023-07-20T13:22:06;3.55;;;1.80;;
64188;SDS011;50493;50.970;10.082;2023-07-20T13:24:32;2.55;;;1.90;;
64188;SDS011;50493;50.970;10.082;2023-07-20T13:26:58;2.25;;;1.83;;
64188;SDS011;50493;50.970;10.082;2023-07-20T13:29:24;3.63;;;1.90;;
64188;SDS011;50493;50.970;10.082;2023-07-20T13:31:50;2.80;;;2.00;;
64188;SDS011;50493;50.970;10.082;2023-07-20T13:34:15;3.00;;;2.03;;
64188;SDS011;50493;50.970;10.082;2023-07-20T13:36:41;2.42;;;1.83;;
64188;SDS011;50493;50.970;10.082;2023-07-20T13:39:06;2.60;;;1.90;;
64188;SDS011;50493;50.970;10.082;2023-07-20T13:41:32;2.60;;;1.98;;
64188;SDS011;50493;50.970;10.082;2023-07-20T13:43:59;3.00;;;1.95;;
64188;SDS011;50493;50.970;10.082;2023-07-20T13:46:25;2.50;;;2.00;;
64188;SDS011;50493;50.970;10.082;2023-07-20T13:48:50;3.25;;;2.15;;
64188;SDS011;50493;50.970;10.082;2023-07-20T13:51:16;2.35;;;1.90;;
64188;SDS011;50493;50.970;10.082;2023-07-20T13:53:41;2.65;;;2.10;;
64188;SDS011;50493;50.970;10.082;2023-07-20T13:56:07;5.10;;;2.10;;
64188;SDS011;50493;50.970;10.082;2023-07-20T13:58:32;2.40;;;1.90;;
64188;SDS011;50493;50.970;10.082;2023-07-20T14:00:59;2.15;;;1.83;;
64188;SDS011;50493;50.970;10.082;2023-07-20T14:03:24;3.10;;;2.10;;
64188;SDS011;50493;50.970;10.082;2023-07-20T14:05:50;2.78;;;2.10;;
64188;SDS011;50493;50.970;10.082;2023-07-20T14:08:15;2.78;;;2.10;;
64188;SDS011;50493;50.970;10.082;2023-07-20T14:10:40;3.72;;;2.10;;
64188;SDS011;50493;50.970;10.082;2023-07-20T14:13:06;3.28;;;2.10;;
64188;SDS011;50493;50.970;10.082;2023-07-20T14:15:32;2.60;;;2.00;;
64188;SDS011;50493;50.970;10.082;2023-07-20T14:18:01;3.75;;;2.60;;
64188;SDS011;50493;50.970;10.082;2023-07-20T14:20:26;3.53;;;2.08;;
64188;SDS011;50493;50.970;10.082;2023-07-20T14:22:51;2.45;;;2.10;;
64188;SDS011;50493;50.970;10.082;2023-07-20T14:25:17;2.53;;;2.10;;
64188;SDS011;50493;50.970;10.082;2023-07-20T14:27:42;3.28;;;2.35;;
64188;SDS011;50493;50.970;10.082;2023-07-20T14:30:08;2.75;;;2.13;;
64188;SDS011;50493;50.970;10.082;2023-07-20T14:32:34;2.40;;;2.03;;